createdAt,value
2018-06-08T00:02:26.278Z,18.60
2018-06-08T00:04:54.064Z,18.60
2018-06-08T00:07:21.780Z,18.60
2018-06-08T00:09:49.578Z,18.70
2018-06-08T00:12:17.333Z,18.70
2018-06-08T00:14:45.124Z,18.70
2018-06-08T00:17:12.979Z,18.70
2018-06-08T00:19:40.729Z,18.70
2018-06-08T00:22:08.413Z,18.60
2018-06-08T00:24:36.236Z,18.60
2018-06-08T00:27:04.110Z,18.60
2018-06-08T00:29:31.935Z,18.60
2018-06-08T00:31:59.679Z,18.60
2018-06-08T00:34:27.556Z,18.50
2018-06-08T00:36:55.524Z,18.40
2018-06-08T00:39:23.535Z,18.30
2018-06-08T00:41:51.289Z,18.30
2018-06-08T00:44:19.049Z,18.20
2018-06-08T00:46:46.972Z,18.10
2018-06-08T00:49:14.733Z,18.10
2018-06-08T00:51:42.619Z,18.00
2018-06-08T00:54:10.398Z,18.00
2018-06-08T00:56:49.682Z,17.90
2018-06-08T00:59:17.560Z,17.80
2018-06-08T01:01:45.322Z,17.80
2018-06-08T01:04:13.232Z,17.70
2018-06-08T01:06:41.038Z,17.60
2018-06-08T01:09:09.132Z,17.60
2018-06-08T01:11:37.009Z,17.60
2018-06-08T01:14:04.875Z,17.60
2018-06-08T01:16:32.673Z,17.60
2018-06-08T01:19:00.504Z,17.50
2018-06-08T01:23:55.823Z,17.50
2018-06-08T01:26:23.691Z,17.40
2018-06-08T01:28:51.684Z,17.40
2018-06-08T01:31:19.493Z,17.40
2018-06-08T01:33:47.336Z,17.40
2018-06-08T01:36:15.223Z,17.30
2018-06-08T01:38:43.107Z,17.30
2018-06-08T01:41:11.068Z,17.20
2018-06-08T01:43:38.938Z,17.30
2018-06-08T01:46:06.756Z,17.30
2018-06-08T01:48:34.611Z,17.30
2018-06-08T01:51:02.425Z,17.10
2018-06-08T01:53:30.254Z,17.00
2018-06-08T01:55:58.380Z,17.00
2018-06-08T01:58:26.305Z,16.90
2018-06-08T02:00:54.262Z,16.90
2018-06-08T02:03:22.184Z,16.80
2018-06-08T02:05:49.936Z,16.80
2018-06-08T02:08:17.731Z,16.70
2018-06-08T02:10:45.525Z,16.60
2018-06-08T02:13:13.231Z,16.60
2018-06-08T02:15:41.161Z,16.50
2018-06-08T02:18:08.955Z,16.50
2018-06-08T02:20:36.791Z,16.50
2018-06-08T02:23:04.691Z,16.50
2018-06-08T02:25:32.648Z,16.50
2018-06-08T02:28:00.433Z,16.40
2018-06-08T02:30:28.368Z,16.50
2018-06-08T02:32:56.358Z,16.60
2018-06-08T02:35:24.068Z,16.60
2018-06-08T02:37:51.908Z,16.60
2018-06-08T02:40:19.782Z,16.70
2018-06-08T02:42:47.640Z,16.80
2018-06-08T02:45:15.511Z,16.70
2018-06-08T02:47:43.400Z,16.70
2018-06-08T02:50:11.254Z,16.70
2018-06-08T02:52:39.186Z,16.60
2018-06-08T02:55:07.064Z,16.40
2018-06-08T02:57:34.917Z,16.40
2018-06-08T03:00:02.753Z,16.40
2018-06-08T03:02:30.539Z,16.40
2018-06-08T03:04:58.611Z,16.30
2018-06-08T03:09:54.313Z,16.20
2018-06-08T03:12:22.183Z,16.30
2018-06-08T03:14:50.071Z,16.30
2018-06-08T03:17:17.887Z,16.30
2018-06-08T03:19:45.657Z,16.50
2018-06-08T03:22:13.546Z,16.50
2018-06-08T03:24:41.473Z,16.60
2018-06-08T03:27:09.363Z,16.80
2018-06-08T03:29:37.176Z,16.70
2018-06-08T03:32:05.834Z,16.70
2018-06-08T03:34:33.524Z,16.70
2018-06-08T03:37:01.263Z,16.70
2018-06-08T03:39:30.214Z,16.60
2018-06-08T03:41:58.261Z,16.60
2018-06-08T03:44:26.097Z,16.60
2018-06-08T03:46:53.938Z,16.60
2018-06-08T03:49:21.670Z,16.70
2018-06-08T03:54:17.258Z,16.70
2018-06-08T03:56:48.631Z,16.70
2018-06-08T03:59:17.384Z,16.70
2018-06-08T04:01:45.313Z,16.70
2018-06-08T04:04:12.954Z,16.70
2018-06-08T04:06:40.769Z,16.80
2018-06-08T04:09:08.662Z,16.90
2018-06-08T04:11:36.448Z,16.80
2018-06-08T04:14:05.124Z,17.00
2018-06-08T04:16:32.976Z,17.00
2018-06-08T04:19:00.775Z,17.00
2018-06-08T04:21:28.728Z,17.00
2018-06-08T04:26:24.279Z,17.20
2018-06-08T04:28:52.150Z,17.10
2018-06-08T04:31:21.293Z,17.20
2018-06-08T04:33:49.140Z,17.30
2018-06-08T04:36:17.011Z,17.40
2018-06-08T04:38:44.808Z,17.40
2018-06-08T04:41:12.696Z,17.40
2018-06-08T04:43:40.461Z,17.30
2018-06-08T04:48:35.895Z,17.30
2018-06-08T04:51:03.712Z,17.30
2018-06-08T04:53:31.567Z,17.30
2018-06-08T04:55:59.679Z,17.30
2018-06-08T04:58:27.630Z,17.60
2018-06-08T05:00:55.583Z,17.80
2018-06-08T05:03:23.509Z,18.00
2018-06-08T05:05:51.316Z,17.90
2018-06-08T05:08:19.339Z,17.90
2018-06-08T05:10:47.047Z,17.90
2018-06-08T05:13:14.903Z,17.90
2018-06-08T05:15:42.579Z,17.90
2018-06-08T05:18:10.368Z,17.90
2018-06-08T05:20:38.267Z,18.10
2018-06-08T05:23:06.073Z,18.10
2018-06-08T05:25:33.869Z,18.20
2018-06-08T05:28:01.792Z,18.30
2018-06-08T05:30:29.783Z,18.30
2018-06-08T05:32:57.767Z,18.40
2018-06-08T05:35:25.724Z,18.50
2018-06-08T05:37:53.521Z,18.50
2018-06-08T05:40:21.385Z,18.50
2018-06-08T05:42:49.278Z,18.50
2018-06-08T05:45:17.238Z,18.60
2018-06-08T05:47:45.206Z,18.70
2018-06-08T05:50:13.044Z,18.90
2018-06-08T05:52:40.746Z,19.10
2018-06-08T05:55:08.478Z,19.20
2018-06-08T05:57:36.310Z,19.30
2018-06-08T06:00:04.273Z,19.40
2018-06-08T06:02:32.189Z,19.70
2018-06-08T06:05:00.291Z,19.80
2018-06-08T06:07:28.327Z,19.90
2018-06-08T06:09:56.205Z,20.00
2018-06-08T06:12:24.780Z,20.00
2018-06-08T06:14:52.836Z,20.20
2018-06-08T06:17:20.744Z,20.30
2018-06-08T06:19:48.663Z,20.80
2018-06-08T06:22:16.688Z,21.70
2018-06-08T06:24:44.676Z,22.80
2018-06-08T06:27:12.423Z,23.90
2018-06-08T06:29:40.253Z,25.00
2018-06-08T06:32:07.982Z,25.60
2018-06-08T06:34:35.816Z,26.10
2018-06-08T06:37:03.640Z,26.30
2018-06-08T06:39:31.417Z,26.80
2018-06-08T06:41:59.364Z,27.10
2018-06-08T06:44:27.274Z,27.30
2018-06-08T06:49:22.824Z,27.70
2018-06-08T06:51:50.791Z,27.60
2018-06-08T06:54:18.810Z,27.60
2018-06-08T06:56:46.657Z,27.80
2018-06-08T06:59:14.446Z,28.10
2018-06-08T07:01:42.296Z,28.30
2018-06-08T07:04:10.138Z,28.50
2018-06-08T07:06:38.001Z,28.70
2018-06-08T07:09:08.465Z,28.70
2018-06-08T07:11:36.341Z,28.90
2018-06-08T07:14:04.180Z,29.00
2018-06-08T07:16:32.022Z,29.00
2018-06-08T07:18:59.783Z,29.10
2018-06-08T07:21:27.602Z,29.20
2018-06-08T07:23:55.433Z,28.90
2018-06-08T07:26:23.301Z,28.90
2018-06-08T07:28:51.330Z,29.00
2018-06-08T07:31:19.108Z,28.60
2018-06-08T07:33:47.019Z,28.50
2018-06-08T07:36:14.869Z,28.60
2018-06-08T07:38:42.820Z,28.40
2018-06-08T07:41:10.623Z,28.30
2018-06-08T07:43:38.454Z,28.20
2018-06-08T07:46:06.470Z,28.50
2018-06-08T07:48:34.274Z,28.70
2018-06-08T07:51:02.156Z,28.90
2018-06-08T07:53:29.909Z,28.90
2018-06-08T07:55:57.751Z,29.10
2018-06-08T07:58:25.538Z,29.30
2018-06-08T08:00:53.377Z,29.20
2018-06-08T08:03:21.237Z,29.10
2018-06-08T08:05:49.096Z,29.20
2018-06-08T08:08:16.892Z,29.30
2018-06-08T08:10:44.850Z,29.60
2018-06-08T08:13:12.611Z,29.50
2018-06-08T08:15:40.427Z,29.60
2018-06-08T08:18:08.226Z,29.60
2018-06-08T08:20:35.943Z,29.70
2018-06-08T08:23:03.842Z,30.00
2018-06-08T08:25:31.710Z,30.20
2018-06-08T08:27:59.666Z,30.10
2018-06-08T08:30:27.414Z,30.20
2018-06-08T08:32:55.350Z,30.10
2018-06-08T08:35:23.893Z,30.00
2018-06-08T08:37:51.676Z,29.90
2018-06-08T08:40:19.590Z,29.90
2018-06-08T08:42:47.590Z,29.80
2018-06-08T08:45:15.506Z,29.80
2018-06-08T08:47:43.340Z,29.90
2018-06-08T08:50:11.223Z,30.10
2018-06-08T08:52:38.991Z,30.20
2018-06-08T08:55:06.851Z,30.20
2018-06-08T08:57:34.740Z,30.20
2018-06-08T09:00:02.604Z,30.10
2018-06-08T09:02:30.439Z,30.20
2018-06-08T09:04:58.312Z,30.20
2018-06-08T09:07:26.234Z,30.40
2018-06-08T09:09:55.207Z,30.60
2018-06-08T09:12:23.086Z,30.80
2018-06-08T09:14:50.856Z,30.90
2018-06-08T09:17:18.650Z,30.90
2018-06-08T09:19:46.414Z,30.90
2018-06-08T09:22:14.265Z,30.70
2018-06-08T09:24:42.190Z,30.70
2018-06-08T09:27:09.998Z,30.70
2018-06-08T09:29:43.847Z,30.40
2018-06-08T09:32:11.642Z,30.50
2018-06-08T09:34:39.512Z,30.40
2018-06-08T09:37:07.437Z,29.90
2018-06-08T09:42:02.963Z,29.40
2018-06-08T09:44:30.863Z,29.00
2018-06-08T09:46:58.737Z,28.60
2018-06-08T09:49:26.548Z,28.30
2018-06-08T09:51:54.385Z,28.10
2018-06-08T09:54:22.175Z,28.00
2018-06-08T09:56:49.935Z,27.90
2018-06-08T09:59:17.840Z,27.80
2018-06-08T10:01:45.673Z,27.90
2018-06-08T10:04:13.818Z,28.00
2018-06-08T10:06:41.669Z,27.80
2018-06-08T10:09:10.070Z,27.80
2018-06-08T10:11:37.859Z,27.70
2018-06-08T10:14:05.872Z,27.50
2018-06-08T10:16:33.765Z,27.60
2018-06-08T10:19:01.641Z,27.60
2018-06-08T10:21:29.677Z,27.60
2018-06-08T10:23:57.584Z,27.60
2018-06-08T10:26:25.342Z,27.60
2018-06-08T10:28:53.447Z,27.40
2018-06-08T10:33:52.527Z,27.10
2018-06-08T10:36:23.256Z,27.10
2018-06-08T10:38:51.031Z,27.10
2018-06-08T10:41:18.694Z,27.10
2018-06-08T10:43:46.653Z,27.10
2018-06-08T10:48:42.187Z,27.40
2018-06-08T10:51:10.140Z,27.80
2018-06-08T10:53:38.037Z,28.20
2018-06-08T10:56:06.214Z,28.60
2018-06-08T10:58:34.587Z,28.90
2018-06-08T11:01:02.856Z,28.90
2018-06-08T11:03:31.073Z,29.00
2018-06-08T11:06:02.048Z,29.10
2018-06-08T11:08:29.938Z,29.30
2018-06-08T11:10:57.863Z,29.60
2018-06-08T11:13:25.719Z,29.60
2018-06-08T11:15:53.510Z,29.70
2018-06-08T11:18:25.224Z,29.70
2018-06-08T11:20:53.032Z,29.80
2018-06-08T11:23:23.538Z,29.90
2018-06-08T11:25:51.371Z,30.00
2018-06-08T11:28:19.175Z,30.10
2018-06-08T11:30:46.960Z,29.90
2018-06-08T11:33:15.161Z,29.70
2018-06-08T11:35:42.983Z,29.50
2018-06-08T11:38:10.801Z,29.30
2018-06-08T11:40:38.681Z,29.20
2018-06-08T11:43:06.527Z,29.10
2018-06-08T11:45:34.398Z,29.00
2018-06-08T11:48:02.158Z,28.90
2018-06-08T11:50:30.881Z,28.80
2018-06-08T11:53:17.600Z,28.80
2018-06-08T11:55:48.684Z,29.10
2018-06-08T11:58:16.512Z,29.30
2018-06-08T12:00:46.322Z,29.30
2018-06-08T12:03:14.641Z,29.40
2018-06-08T12:05:42.408Z,29.40
2018-06-08T12:08:10.253Z,29.50
2018-06-08T12:10:44.680Z,29.70
2018-06-08T12:13:12.478Z,30.00
2018-06-08T12:15:40.268Z,30.20
2018-06-08T12:18:10.991Z,30.00
2018-06-08T12:20:47.012Z,29.70
2018-06-08T12:23:14.869Z,29.50
2018-06-08T12:25:42.776Z,29.20
2018-06-08T12:28:10.659Z,28.90
2018-06-08T12:33:06.151Z,28.90
2018-06-08T12:35:33.994Z,29.10
2018-06-08T12:38:03.911Z,29.30
2018-06-08T12:40:31.671Z,29.50
2018-06-08T12:43:05.268Z,29.60
2018-06-08T12:45:33.019Z,29.80
2018-06-08T12:48:00.926Z,29.90
2018-06-08T12:50:28.898Z,29.90
2018-06-08T12:52:57.030Z,30.00
2018-06-08T12:55:25.056Z,30.10
2018-06-08T12:57:52.964Z,30.20
2018-06-08T13:00:20.809Z,30.10
2018-06-08T13:02:48.524Z,29.90
2018-06-08T13:05:16.442Z,29.60
2018-06-08T13:07:44.337Z,29.60
2018-06-08T13:10:12.137Z,29.50
2018-06-08T13:12:39.998Z,29.40
2018-06-08T13:15:07.886Z,29.40
2018-06-08T13:17:36.580Z,29.30
2018-06-08T13:20:04.940Z,29.30
2018-06-08T13:22:32.870Z,29.30
2018-06-08T13:25:01.852Z,29.50
2018-06-08T13:27:29.892Z,29.70
2018-06-08T13:29:58.021Z,29.70
2018-06-08T13:32:25.953Z,29.80
2018-06-08T13:34:53.804Z,29.90
2018-06-08T13:37:21.536Z,29.80
2018-06-08T13:39:49.253Z,29.60
2018-06-08T13:42:17.504Z,29.50
2018-06-08T13:44:45.366Z,29.40
2018-06-08T13:47:13.116Z,29.20
2018-06-08T13:49:40.830Z,29.20
2018-06-08T13:52:08.580Z,29.20
2018-06-08T13:54:36.591Z,29.30
2018-06-08T13:57:04.381Z,29.50
2018-06-08T13:59:32.317Z,29.70
2018-06-08T14:02:00.355Z,29.80
2018-06-08T14:04:29.369Z,29.80
2018-06-08T14:06:57.345Z,29.80
2018-06-08T14:09:25.168Z,29.80
2018-06-08T14:11:53.361Z,29.60
2018-06-08T14:16:49.277Z,29.60
2018-06-08T14:19:17.314Z,29.50
2018-06-08T14:21:45.368Z,29.50
2018-06-08T14:24:13.066Z,29.40
2018-06-08T14:26:41.001Z,29.30
2018-06-08T14:29:09.268Z,29.30
2018-06-08T14:31:37.168Z,29.30
2018-06-08T14:34:05.087Z,29.30
2018-06-08T14:36:32.935Z,29.20
2018-06-08T14:39:00.626Z,29.20
2018-06-08T14:41:28.621Z,29.00
2018-06-08T14:43:56.384Z,29.00
2018-06-08T14:46:24.286Z,28.90
2018-06-08T14:48:52.209Z,28.80
2018-06-08T14:51:20.028Z,28.70
2018-06-08T14:53:47.842Z,28.60
2018-06-08T14:56:15.650Z,28.50
2018-06-08T14:58:43.568Z,28.50
2018-06-08T15:01:11.568Z,28.50
2018-06-08T15:03:39.324Z,28.60
2018-06-08T15:06:07.159Z,28.60
2018-06-08T15:08:34.883Z,28.60
2018-06-08T15:11:02.893Z,28.60
2018-06-08T15:13:30.818Z,28.60
2018-06-08T15:15:58.913Z,28.70
2018-06-08T15:18:28.247Z,28.90
2018-06-08T15:20:59.680Z,29.10
2018-06-08T15:23:27.509Z,29.30
2018-06-08T15:25:55.345Z,29.30
2018-06-08T15:28:23.039Z,29.30
2018-06-08T15:30:51.003Z,29.30
2018-06-08T15:33:18.790Z,29.30
2018-06-08T15:35:46.526Z,29.30
2018-06-08T15:38:14.337Z,29.40
2018-06-08T15:40:42.185Z,29.40
2018-06-08T15:43:09.976Z,29.50
2018-06-08T15:45:37.957Z,29.50
2018-06-08T15:48:05.744Z,29.50
2018-06-08T15:50:33.650Z,29.50
2018-06-08T15:53:01.413Z,29.60
2018-06-08T15:55:29.210Z,29.70
2018-06-08T15:57:57.142Z,29.80
2018-06-08T16:00:24.928Z,29.80
2018-06-08T16:02:52.726Z,29.70
2018-06-08T16:05:20.583Z,29.50
2018-06-08T16:07:48.377Z,29.50
2018-06-08T16:10:16.262Z,29.50
2018-06-08T16:12:44.155Z,29.40
2018-06-08T16:15:11.992Z,29.40
2018-06-08T16:17:39.756Z,29.40
2018-06-08T16:20:07.726Z,29.30
2018-06-08T16:22:35.704Z,29.40
2018-06-08T16:25:03.882Z,29.40
2018-06-08T16:27:31.679Z,29.30
2018-06-08T16:29:59.419Z,29.20
2018-06-08T16:32:27.166Z,29.20
2018-06-08T16:34:54.996Z,29.10
2018-06-08T16:37:22.889Z,29.10
2018-06-08T16:42:18.444Z,29.10
2018-06-08T16:49:41.622Z,29.20
2018-06-08T16:52:09.463Z,29.10
2018-06-08T16:54:37.301Z,29.00
2018-06-08T16:57:06.244Z,28.80
2018-06-08T16:59:34.061Z,28.70
2018-06-08T17:02:01.854Z,28.60
2018-06-08T17:04:29.601Z,28.60
2018-06-08T17:06:57.364Z,28.50
2018-06-08T17:09:25.252Z,28.40
2018-06-08T17:11:53.169Z,28.50
2018-06-08T17:14:20.981Z,28.50
2018-06-08T17:19:16.864Z,28.60
2018-06-08T17:21:44.600Z,28.40
2018-06-08T17:24:12.323Z,28.20
2018-06-08T17:26:40.074Z,28.10
2018-06-08T17:29:07.866Z,28.10
2018-06-08T17:31:36.718Z,27.90
2018-06-08T17:34:04.853Z,27.90
2018-06-08T17:36:32.728Z,27.80
2018-06-08T17:39:00.548Z,27.70
2018-06-08T17:41:28.339Z,27.70
2018-06-08T17:43:56.169Z,27.60
2018-06-08T17:46:24.091Z,27.40
2018-06-08T17:48:52.919Z,27.40
2018-06-08T17:51:20.818Z,27.30
2018-06-08T17:53:48.796Z,27.30
2018-06-08T17:56:16.681Z,27.30
2018-06-08T17:58:44.515Z,27.20
2018-06-08T18:01:12.406Z,27.20
2018-06-08T18:03:40.154Z,27.10
2018-06-08T18:06:07.910Z,27.10
2018-06-08T18:08:35.711Z,27.00
2018-06-08T18:11:03.454Z,26.90
2018-06-08T18:13:31.168Z,26.80
2018-06-08T18:15:58.838Z,26.80
2018-06-08T18:18:27.624Z,26.70
2018-06-08T18:20:55.521Z,26.60
2018-06-08T18:23:23.372Z,26.50
2018-06-08T18:28:20.192Z,26.30
2018-06-08T18:30:48.245Z,26.30
2018-06-08T18:33:16.217Z,26.20
2018-06-08T18:35:46.571Z,26.10
2018-06-08T18:38:14.312Z,26.10
2018-06-08T18:40:42.212Z,26.00
2018-06-08T18:43:09.989Z,25.90
2018-06-08T18:45:37.791Z,25.80
2018-06-08T18:48:05.604Z,25.80
2018-06-08T18:50:33.356Z,25.70
2018-06-08T18:53:01.090Z,25.60
2018-06-08T18:55:28.870Z,25.60
2018-06-08T18:57:56.744Z,25.50
2018-06-08T19:00:24.481Z,25.50
2018-06-08T19:02:52.284Z,25.50
2018-06-08T19:05:20.166Z,25.40
2018-06-08T19:07:48.422Z,25.30
2018-06-08T19:10:16.376Z,25.30
2018-06-08T19:12:44.152Z,25.20
2018-06-08T19:15:12.706Z,25.10
2018-06-08T19:17:40.563Z,25.00
2018-06-08T19:20:08.443Z,24.90
2018-06-08T19:22:36.230Z,24.80
2018-06-08T19:25:04.128Z,24.70
2018-06-08T19:27:32.909Z,24.60
2018-06-08T19:30:00.667Z,24.60
2018-06-08T19:32:28.426Z,24.60
2018-06-08T19:34:56.230Z,24.50
2018-06-08T19:37:25.277Z,24.50
2018-06-08T19:39:52.998Z,24.40
2018-06-08T19:42:20.764Z,24.40
2018-06-08T19:44:48.829Z,24.30
2018-06-08T19:47:17.049Z,24.20
2018-06-08T19:49:44.910Z,24.10
2018-06-08T19:52:12.638Z,24.10
2018-06-08T19:54:40.411Z,24.00
2018-06-08T19:57:08.174Z,23.90
2018-06-08T19:59:35.914Z,23.90
2018-06-08T20:02:03.706Z,23.80
2018-06-08T20:04:31.405Z,23.80
2018-06-08T20:07:02.394Z,23.70
2018-06-08T20:09:30.355Z,23.60
2018-06-08T20:11:58.216Z,23.50
2018-06-08T20:14:26.361Z,23.40
2018-06-08T20:16:54.206Z,23.40
2018-06-08T20:19:22.590Z,23.40
2018-06-08T20:21:50.677Z,23.30
2018-06-08T20:24:18.801Z,23.20
2018-06-08T20:26:47.886Z,23.20
2018-06-08T20:29:15.842Z,23.10
2018-06-08T20:31:43.965Z,23.10
2018-06-08T20:34:11.866Z,22.90
2018-06-08T20:36:39.798Z,22.80
2018-06-08T20:39:07.999Z,22.70
2018-06-08T20:41:35.997Z,22.70
2018-06-08T20:44:03.860Z,22.60
2018-06-08T20:46:31.679Z,22.60
2018-06-08T20:48:59.909Z,22.50
2018-06-08T20:51:27.956Z,22.40
2018-06-08T20:53:55.855Z,22.40
2018-06-08T20:56:23.837Z,22.30
2018-06-08T20:58:51.547Z,22.20
2018-06-08T21:03:47.044Z,22.00
2018-06-08T21:06:14.911Z,22.00
2018-06-08T21:08:44.347Z,22.00
2018-06-08T21:11:12.164Z,21.90
2018-06-08T21:13:40.094Z,21.90
2018-06-08T21:16:07.881Z,21.90
2018-06-08T21:18:35.588Z,21.80
2018-06-08T21:21:03.427Z,21.90
2018-06-08T21:23:31.320Z,21.90
2018-06-08T21:25:59.123Z,21.90
2018-06-08T21:28:26.874Z,21.80
2018-06-08T21:30:54.799Z,21.70
2018-06-08T21:33:22.661Z,21.60
2018-06-08T21:35:50.488Z,21.50
2018-06-08T21:38:18.440Z,21.40
2018-06-08T21:40:46.258Z,21.50
2018-06-08T21:43:14.049Z,21.40
2018-06-08T21:45:41.868Z,21.40
2018-06-08T21:50:38.208Z,21.30
2018-06-08T21:53:05.944Z,21.40
2018-06-08T21:55:33.817Z,21.30
2018-06-08T21:58:01.719Z,21.20
2018-06-08T22:00:29.589Z,21.10
2018-06-08T22:02:57.294Z,21.00
2018-06-08T22:05:25.117Z,21.00
2018-06-08T22:07:52.998Z,21.00
2018-06-08T22:10:20.931Z,20.90
2018-06-08T22:12:48.796Z,20.80
2018-06-08T22:15:16.759Z,20.70
2018-06-08T22:17:44.485Z,20.70
2018-06-08T22:20:12.395Z,20.60
2018-06-08T22:25:07.950Z,20.50
2018-06-08T22:27:35.835Z,20.40
2018-06-08T22:32:31.315Z,20.20
2018-06-08T22:34:59.058Z,20.10
2018-06-08T22:37:26.945Z,20.00
2018-06-08T22:39:54.647Z,20.00
2018-06-08T22:42:22.687Z,20.00
2018-06-08T22:44:50.557Z,20.00
2018-06-08T22:47:18.652Z,19.90
2018-06-08T22:49:46.934Z,19.90
2018-06-08T22:52:14.722Z,19.80
2018-06-08T22:54:48.116Z,19.90
2018-06-08T22:57:15.857Z,19.80
2018-06-08T22:59:43.634Z,19.70
2018-06-08T23:02:11.350Z,19.70
2018-06-08T23:04:39.183Z,19.70
2018-06-08T23:07:06.919Z,19.70
2018-06-08T23:09:35.138Z,19.60
2018-06-08T23:12:02.968Z,19.60
2018-06-08T23:14:30.655Z,19.60
2018-06-08T23:16:58.472Z,19.60
2018-06-08T23:19:26.190Z,19.60
2018-06-08T23:21:54.292Z,19.50
2018-06-08T23:24:22.082Z,19.40
2018-06-08T23:26:49.955Z,19.40
2018-06-08T23:29:17.709Z,19.30
2018-06-08T23:31:45.482Z,19.30
2018-06-08T23:34:13.351Z,19.20
2018-06-08T23:36:41.179Z,19.20
2018-06-08T23:39:09.017Z,19.20
2018-06-08T23:41:36.906Z,19.10
2018-06-08T23:44:04.731Z,19.00
2018-06-08T23:46:32.486Z,19.10
2018-06-08T23:49:00.394Z,19.00
2018-06-08T23:51:28.793Z,18.90
2018-06-08T23:53:56.649Z,19.00
2018-06-08T23:56:24.422Z,19.00
2018-06-08T23:58:52.224Z,18.90
